EA5DHO-13 Weather Reports


Display with metric or nautical units.
time (UTC)temp
F
wind
direction
speed
MPH
gust
MPH
rain 1hr
in
rain 24hr
in
rain mn
in
humidity
%
barometer
mb
20240522172426 70 72 9.0 15.0 0.00 0.00 0.00 66 1017.6
20240522171442 0 0.0 0.0 0.00 0.00 0.00 1017.8
20240522170438 0 0.0 0.0 0.00 0.00 0.00 1017.8
20240522165534 0 0.0 0.0 0.00 0.00 0.00 1017.8
20240522164510 0 0.0 0.0 0.00 0.00 0.00 1017.9
20240522163507 0 0.0 0.0 0.00 0.00 0.00 1017.9
20240522162503 0 0.0 0.0 0.00 0.00 0.00 1018.0
20240522161458 71 68 8.0 11.0 0.00 0.00 0.00 67 1017.8
20240522160455 71 90 12.0 17.0 0.00 0.00 0.00 66 1018.0
20240522155450 71 90 11.0 15.0 0.00 0.00 0.00 67 1017.9
20240522154507 71 90 6.0 9.0 0.00 0.00 0.00 67 1017.8
20240522153441 71 90 13.0 20.0 0.00 0.00 0.00 65 1017.9
20240522152438 71 68 8.0 14.0 0.00 0.00 0.00 64 1017.8
20240522151433 70 113 15.0 20.0 0.00 0.00 0.00 65 1017.9
20240522150429 71 90 8.0 13.0 0.00 0.00 0.00 65 1017.8
20240522145425 71 90 15.0 20.0 0.00 0.00 0.00 63 1017.9
20240522144440 71 113 11.0 16.0 0.00 0.00 0.00 52 1017.9
20240522143416 71 90 13.0 18.0 0.00 0.00 0.00 57 1018.1
20240522142512 0 0.0 0.0 0.00 0.00 0.00 1018.1
20240522141508 0 0.0 0.0 0.00 0.00 0.00 1018.1
20240522140504 73 113 2.0 4.0 0.00 0.43 0.00 63 1018.3
20240522135500 71 90 10.0 21.0 0.00 0.43 0.00 62 1018.3
20240522134455 71 119 16.0 23.0 0.00 0.43 0.00 64 1018.2
20240522133451 71 0 12.0 16.0 0.00 0.43 0.00 63 1018.5
20240522132447 73 113 8.0 11.0 0.00 0.43 0.00 56 1018.3
20240522131503 74 90 8.0 13.0 0.00 0.43 0.00 46 1018.4
20240522130438 73 68 9.0 16.0 0.00 0.43 0.00 43 1018.5
20240522125454 71 113 14.0 16.0 0.00 0.43 0.00 44 1018.5
20240522124430 72 62 9.0 14.0 0.00 0.43 0.00 47 1018.6
20240522123445 72 45 6.0 11.0 0.00 0.43 0.00 49 1018.5
20240522122421 71 113 6.0 9.0 0.00 0.43 0.00 50 1018.5
20240522121417 71 82 8.0 13.0 0.00 0.43 0.00 48 1018.7
20240522120513 71 90 7.0 13.0 0.00 0.43 0.00 48 1018.9
20240522115509 71 68 10.0 14.0 0.00 0.43 0.00 49 1018.8
20240522114505 71 82 9.0 15.0 0.00 0.43 0.00 47 1018.9
20240522113541 71 83 9.0 13.0 0.00 0.43 0.00 50 1018.8
20240522112456 70 68 10.0 14.0 0.00 0.43 0.00 49 1019.1
20240522111452 70 90 9.0 16.0 0.00 0.43 0.00 50 1019.3
20240522110448 72 59 3.0 9.0 0.00 0.43 0.00 48 1019.3
20240522105444 70 78 7.0 13.0 0.00 0.43 0.00 49 1019.4
20240522104440 70 60 11.0 14.0 0.00 0.43 0.00 51 1019.4
20240522103435 71 81 7.0 11.0 0.00 0.43 0.00 50 1019.5
20240522102452 70 59 6.0 11.0 0.00 0.43 0.00 51 1019.4
20240522101427 70 68 6.0 11.0 0.00 0.43 0.00 51 1019.6
20240522100504 69 98 7.0 11.0 0.00 0.43 0.00 52 1019.7
20240522095439 69 52 7.0 11.0 0.00 0.43 0.00 50 1019.7
20240522094415 69 45 7.0 9.0 0.00 0.43 0.00 50 1019.6
20240522093511 69 82 9.0 13.0 0.00 0.43 0.00 51 1019.6
20240522092507 69 68 8.0 11.0 0.00 0.43 0.00 51 1019.7
20240522091502 70 113 5.0 7.0 0.00 0.43 0.00 50 1019.6
20240522090518 70 84 7.0 9.0 0.00 0.43 0.00 48 1019.6
20240522085454 70 74 6.0 8.0 0.00 0.43 0.00 46 1019.6
20240522084450 69 77 4.0 8.0 0.00 0.43 0.00 50 1019.5
20240522083446 69 68 8.0 11.0 0.00 0.43 0.00 48 1019.6
20240522082441 71 77 3.0 4.0 0.00 0.43 0.00 44 1019.7
20240522081437 70 68 2.0 4.0 0.00 0.43 0.00 45 1019.5
20240522080433 71 90 3.0 6.0 0.00 0.43 0.00 44 1019.5
20240522075429 69 45 2.0 4.0 0.00 0.43 0.00 46 1019.5
20240522074425 72 68 1.0 2.0 0.00 0.43 0.00 45 1019.5
20240522073420 69 248 1.0 4.0 0.00 0.43 0.00 49 1019.4
20240522072436 67 248 1.0 2.0 0.00 0.43 0.00 52 1019.3
20240522071513 66 255 4.0 6.0 0.00 0.43 0.00 53 1019.3
20240522070529 65 293 4.0 7.0 0.00 0.43 0.00 55 1019.2
20240522065504 64 284 5.0 11.0 0.00 0.43 0.00 56 1019.2
20240522064521 64 270 7.0 11.0 0.00 0.43 0.00 57 1019.1
20240522063457 63 261 7.0 11.0 0.00 0.43 0.00 59 1019.0
20240522062453 62 203 4.0 7.0 0.00 0.43 0.00 61 1019.0
20240522061509 62 263 4.0 7.0 0.00 0.43 0.00 62 1019.1
20240522060445 61 254 5.0 8.0 0.00 0.43 0.00 62 1018.9
20240522055441 60 270 6.0 8.0 0.00 0.43 0.00 64 1019.1
20240522054457 60 262 5.0 6.0 0.00 0.43 0.00 65 1019.0
20240522053433 60 270 6.0 8.0 0.00 0.43 0.00 65 1018.9
20240522052428 60 248 7.0 11.0 0.00 0.43 0.00 65 1018.8
20240522051424 60 248 3.0 7.0 0.00 0.43 0.00 65 1018.8
20240522050420 61 266 4.0 8.0 0.00 0.43 0.00 63 1018.6
20240522045415 61 270 4.0 7.0 0.00 0.43 0.00 64 1018.5
20240522044511 60 270 2.0 4.0 0.00 0.43 0.00 66 1018.4
20240522043507 61 263 2.0 4.0 0.00 0.43 0.00 64 1018.3
20240522042523 61 270 2.0 2.0 0.00 0.43 0.00 65 1018.4
20240522041458 60 270 2.0 4.0 0.00 0.43 0.00 65 1018.2
20240522040454 61 238 3.0 6.0 0.00 0.43 0.00 65 1018.2
20240522035449 60 270 4.0 6.0 0.00 0.43 0.00 65 1018.2
20240522034445 61 270 4.0 6.0 0.00 0.43 0.00 65 1018.0
20240522033441 61 261 3.0 4.0 0.00 0.43 0.00 64 1018.0
20240522032437 61 240 3.0 4.0 0.00 0.43 0.00 64 1018.1
20240522031433 62 225 4.0 6.0 0.00 0.43 0.00 63 1018.1
20240522030429 61 263 4.0 7.0 0.00 0.43 0.00 64 1018.1
20240522025445 61 270 3.0 4.0 0.00 0.43 0.00 64 1018.2
20240522024421 61 248 2.0 2.0 0.00 0.43 0.00 65 1018.3
20240522023417 62 270 4.0 7.0 0.00 0.43 0.00 63 1018.3
20240522022512 62 279 2.0 4.0 0.00 0.43 0.00 62 1018.5
20240522021529 63 270 3.0 4.0 0.00 0.43 0.00 61 1018.5
20240522020524 63 270 0.0 2.0 0.00 0.43 0.00 62 1018.5
20240522015459 62 255 2.0 4.0 0.00 0.43 0.00 64 1018.6
20240522014456 63 270 1.0 2.0 0.00 0.43 0.00 64 1018.5
20240522013452 62 248 3.0 4.0 0.00 0.43 0.00 64 1018.4
20240522012447 63 270 2.0 2.0 0.00 0.43 0.00 63 1018.5
20240522011442 63 214 2.0 4.0 0.00 0.43 0.00 64 1018.5
20240522010458 63 293 2.0 4.0 0.00 0.43 0.00 67 1018.5
20240522005434 63 287 3.0 4.0 0.00 0.43 0.00 71 1018.4
20240522004449 64 270 4.0 6.0 0.00 0.43 0.00 72 1018.2
20240522003425 64 262 3.0 4.0 0.00 0.43 0.00 72 1018.3
20240522002421 64 248 1.0 4.0 0.00 0.43 0.00 73 1018.3
20240522001417 65 270 3.0 7.0 0.00 0.43 0.00 73 1018.4
20240522000513 65 203 2.0 2.0 0.00 0.43 0.00 73 1018.3
20240521235509 65 248 1.0 2.0 0.00 0.43 0.00 73 1018.2
20240521234504 65 270 3.0 4.0 0.00 0.43 0.00 73 1018.3
20240521233500 65 270 2.0 4.0 0.00 0.43 0.00 72 1018.4
20240521232456 65 270 2.0 4.0 0.00 0.43 0.00 72 1018.5
20240521231452 65 270 2.0 4.0 0.00 0.43 0.00 72 1018.5
20240521230508 65 248 4.0 7.0 0.00 0.43 0.00 71 1018.7
20240521225444 66 255 3.0 6.0 0.00 0.43 0.00 70 1018.8
20240521224439 66 293 0.0 2.0 0.00 0.43 0.00 70 1018.8
20240521223434 65 0 1.0 2.0 0.00 0.43 0.00 71 1018.8
20240521222430 66 343 3.0 4.0 0.00 0.43 0.00 72 1019.0
20240521221426 66 64 1.0 2.0 0.00 0.43 0.00 72 1018.9
20240521220422 66 0 1.0 2.0 0.00 0.43 0.00 73 1019.2
20240521215417 66 18 3.0 6.0 0.00 0.43 0.43 75 1019.2
20240521214513 65 0 3.0 9.0 0.00 0.43 0.43 77 1019.1
20240521213529 65 52 3.0 4.0 0.00 0.43 0.43 79 1018.8
20240521212505 65 23 3.0 4.0 0.00 0.43 0.43 79 1018.4
20240521211501 66 113 1.0 2.0 0.00 0.43 0.43 77 1018.4
20240521210456 66 23 2.0 4.0 0.00 0.43 0.43 77 1018.2
20240521205452 66 68 2.0 4.0 0.00 0.43 0.43 76 1018.0
20240521204448 66 23 2.0 4.0 0.00 0.43 0.43 75 1017.7
20240521203504 66 45 2.0 4.0 0.00 0.43 0.43 75 1017.6
20240521202439 66 45 3.0 7.0 0.00 0.43 0.43 73 1017.3
20240521201435 66 45 3.0 6.0 0.00 0.43 0.43 73 1017.1
20240521200431 66 0 3.0 6.0 0.00 0.43 0.43 73 1016.9
20240521195427 66 45 2.0 4.0 0.00 0.43 0.43 74 1016.8
20240521194422 67 7 4.0 7.0 0.00 0.43 0.43 74 1016.6
20240521193418 67 23 3.0 8.0 0.00 0.43 0.43 73 1016.5
20240521192514 67 45 4.0 8.0 0.00 0.43 0.43 73 1016.4
20240521191511 67 45 4.0 7.0 0.00 0.43 0.43 72 1016.5
20240521190506 67 49 3.0 11.0 0.00 0.43 0.43 71 1016.4
20240521185502 68 45 6.0 11.0 0.00 0.43 0.43 71 1016.3
20240521184459 68 23 4.0 11.0 0.00 0.43 0.43 70 1016.3
20240521183514 68 45 7.0 11.0 0.00 0.43 0.43 70 1016.4
20240521182450 69 68 5.0 7.0 0.00 0.43 0.43 70 1016.2
20240521181446 68 23 7.0 11.0 0.00 0.43 0.43 70 1016.4
20240521180441 69 68 5.0 9.0 0.00 0.43 0.43 70 1016.1
20240521175438 69 45 4.0 9.0 0.00 0.43 0.43 70 1016.0
20240521174433 69 45 8.0 17.0 0.00 0.43 0.43 69 1015.9
20240521173429 70 90 6.0 13.0 0.00 0.43 0.43 69 1016.0